Time;durP1;ratioP1;P1;durP2;ratioP2;P2;SDS_P1;SDS_P2;PMS_P1;PMS_P2;Temp;Humidity;BMP_temperature;BMP_pressure;BME280_temperature;BME280_humidity;BME280_pressure;Samples;Min_cycle;Max_cycle;Signal;HPM_P1;HPM_P2
2021/10/24 00:02:17;;;;;;;3.33;2.03;;;;;;;;;;5111766;28;20059;-50
2021/10/24 00:04:42;;;;;;;3.10;2.10;;;;;;;;;;5110302;28;20542;-49
2021/10/24 00:07:07;;;;;;;2.63;2.00;;;;;;;;;;5111504;28;20464;-50
2021/10/24 00:09:33;;;;;;;4.03;2.20;;;;;;;;;;5111588;28;20465;-52
2021/10/24 00:11:58;;;;;;;3.23;2.00;;;;;;;;;;5111287;28;20062;-51
2021/10/24 00:14:23;;;;;;;4.53;2.00;;;;;;;;;;5110287;28;20345;-51
2021/10/24 00:16:49;;;;;;;2.92;1.88;;;;;;;;;;5111464;28;20476;-48
2021/10/24 00:19:14;;;;;;;3.50;1.90;;;;;;;;;;5111509;28;20391;-50
2021/10/24 00:21:39;;;;;;;3.33;1.98;;;;;;;;;;5111220;28;20051;-50
2021/10/24 00:24:05;;;;;;;2.33;1.97;;;;;;;;;;5111538;28;20023;-48
2021/10/24 00:26:31;;;;;;;2.97;2.40;;;;;;;;;;5109786;28;20027;-52
2021/10/24 00:28:56;;;;;;;3.63;1.88;;;;;;;;;;5111399;28;20035;-48
2021/10/24 00:31:21;;;;;;;2.55;1.85;;;;;;;;;;5111035;28;20509;-50
2021/10/24 00:33:47;;;;;;;3.20;2.00;;;;;;;;;;5114454;28;20059;-49
2021/10/24 00:36:12;;;;;;;3.28;2.00;;;;;;;;;;5115139;28;20545;-53
2021/10/24 00:38:37;;;;;;;3.08;2.00;;;;;;;;;;5115298;28;20039;-51
2021/10/24 00:41:03;;;;;;;3.07;1.90;;;;;;;;;;5114871;28;20031;-50
2021/10/24 00:43:28;;;;;;;3.45;2.05;;;;;;;;;;5114936;28;20106;-50
2021/10/24 00:45:53;;;;;;;3.60;1.97;;;;;;;;;;5114526;27;20031;-52
2021/10/24 00:48:19;;;;;;;2.92;1.95;;;;;;;;;;5115013;28;20023;-49
2021/10/24 00:50:44;;;;;;;4.65;1.80;;;;;;;;;;5130797;27;20448;-49
2021/10/24 00:53:10;;;;;;;2.63;2.00;;;;;;;;;;5112815;27;20028;-49
2021/10/24 00:55:36;;;;;;;2.40;2.00;;;;;;;;;;5094539;28;20357;-48
2021/10/24 00:58:02;;;;;;;3.53;2.10;;;;;;;;;;5094300;28;20468;-47
2021/10/24 01:00:27;;;;;;;3.33;2.03;;;;;;;;;;5101793;28;20122;-51
2021/10/24 01:02:53;;;;;;;2.40;1.88;;;;;;;;;;5114523;28;20157;-51
2021/10/24 01:05:19;;;;;;;2.87;1.70;;;;;;;;;;5114662;28;20388;-51
2021/10/24 01:07:45;;;;;;;2.65;2.00;;;;;;;;;;5114575;28;20522;-50
2021/10/24 01:10:15;;;;;;;2.60;1.70;;;;;;;;;;5130487;27;20400;-49
2021/10/24 01:12:41;;;;;;;2.28;1.98;;;;;;;;;;5114243;28;20385;-48
2021/10/24 01:15:07;;;;;;;2.47;1.83;;;;;;;;;;5114408;27;20039;-48
2021/10/24 01:17:32;;;;;;;2.50;2.03;;;;;;;;;;5114552;28;20252;-49
2021/10/24 01:19:58;;;;;;;3.20;1.70;;;;;;;;;;5114485;28;20108;-48
2021/10/24 01:22:23;;;;;;;2.03;1.83;;;;;;;;;;5113997;28;20504;-48
2021/10/24 01:24:49;;;;;;;2.77;1.90;;;;;;;;;;5114006;28;20107;-48
2021/10/24 01:27:14;;;;;;;3.35;2.28;;;;;;;;;;5114287;28;20038;-48
2021/10/24 01:29:40;;;;;;;2.63;1.83;;;;;;;;;;5113987;28;20019;-48
2021/10/24 01:32:05;;;;;;;2.60;1.60;;;;;;;;;;5113848;28;20110;-48
2021/10/24 01:34:30;;;;;;;3.53;2.20;;;;;;;;;;5114164;28;20030;-50
2021/10/24 01:36:56;;;;;;;2.58;1.60;;;;;;;;;;5129911;27;20057;-48
2021/10/24 01:39:21;;;;;;;2.63;1.85;;;;;;;;;;5113986;28;20032;-48
2021/10/24 01:41:46;;;;;;;6.20;1.98;;;;;;;;;;5113906;27;20052;-50
2021/10/24 01:44:14;;;;;;;2.73;1.83;;;;;;;;;;5113730;28;20564;-48
2021/10/24 01:46:39;;;;;;;2.25;1.50;;;;;;;;;;5113463;28;20036;-48
2021/10/24 01:49:05;;;;;;;2.88;1.90;;;;;;;;;;5113814;28;20038;-48
2021/10/24 01:51:30;;;;;;;2.25;1.67;;;;;;;;;;5113954;28;20023;-49
2021/10/24 01:53:55;;;;;;;1.90;1.73;;;;;;;;;;5113385;27;20108;-48
2021/10/24 01:56:21;;;;;;;2.72;1.92;;;;;;;;;;5112504;28;20435;-48
2021/10/24 01:58:46;;;;;;;2.17;1.80;;;;;;;;;;5113775;28;20027;-48
2021/10/24 02:01:12;;;;;;;3.85;2.00;;;;;;;;;;5113689;28;20027;-50
2021/10/24 02:03:37;;;;;;;2.15;1.95;;;;;;;;;;5113121;28;20037;-49
2021/10/24 02:06:03;;;;;;;1.60;1.50;;;;;;;;;;5112839;28;20036;-50
2021/10/24 02:08:29;;;;;;;3.20;2.03;;;;;;;;;;5113212;28;20066;-48
2021/10/24 02:10:54;;;;;;;2.53;1.77;;;;;;;;;;5113492;28;20102;-48
2021/10/24 02:13:20;;;;;;;2.57;1.50;;;;;;;;;;5113079;28;20111;-49
2021/10/24 02:15:45;;;;;;;1.92;1.60;;;;;;;;;;5111932;28;20395;-49
2021/10/24 02:18:11;;;;;;;4.33;1.67;;;;;;;;;;5111868;28;20053;-49
2021/10/24 02:20:38;;;;;;;2.60;1.73;;;;;;;;;;5127518;27;20023;-50
2021/10/24 02:23:04;;;;;;;2.40;1.60;;;;;;;;;;5112643;28;20073;-47
2021/10/24 02:25:30;;;;;;;2.23;1.70;;;;;;;;;;5112957;28;20031;-49
2021/10/24 02:27:55;;;;;;;1.85;1.30;;;;;;;;;;5113008;28;20098;-48
2021/10/24 02:30:20;;;;;;;3.13;1.98;;;;;;;;;;5113116;28;20031;-48
2021/10/24 02:32:46;;;;;;;2.13;1.50;;;;;;;;;;5112492;28;20763;-48
2021/10/24 02:35:12;;;;;;;2.33;1.40;;;;;;;;;;5112918;27;20034;-51
2021/10/24 02:37:38;;;;;;;2.40;1.90;;;;;;;;;;5112556;28;20031;-52
2021/10/24 02:40:04;;;;;;;2.97;1.50;;;;;;;;;;5112836;28;20098;-51
2021/10/24 02:42:29;;;;;;;2.10;1.67;;;;;;;;;;5111205;28;20058;-48
2021/10/24 02:44:55;;;;;;;1.80;1.42;;;;;;;;;;5112385;28;20042;-50
2021/10/24 02:47:21;;;;;;;3.70;1.92;;;;;;;;;;5112458;28;20078;-48
2021/10/24 02:49:47;;;;;;;1.92;1.52;;;;;;;;;;5112412;28;20019;-51
2021/10/24 02:52:12;;;;;;;2.63;1.60;;;;;;;;;;5114333;27;20039;-52
2021/10/24 02:54:37;;;;;;;3.17;1.93;;;;;;;;;;5103164;28;20031;-48
2021/10/24 02:57:05;;;;;;;2.72;1.73;;;;;;;;;;5112337;28;20142;-52
2021/10/24 02:59:30;;;;;;;3.05;1.65;;;;;;;;;;5112316;28;20369;-53
2021/10/24 03:01:56;;;;;;;2.10;1.70;;;;;;;;;;5111083;28;20114;-49
2021/10/24 03:04:21;;;;;;;1.75;1.55;;;;;;;;;;5111291;28;20106;-49
2021/10/24 03:06:46;;;;;;;1.75;1.30;;;;;;;;;;5112087;27;20035;-51
2021/10/24 03:09:12;;;;;;;4.47;1.60;;;;;;;;;;5128134;27;20533;-50
2021/10/24 03:11:37;;;;;;;2.45;1.58;;;;;;;;;;5112288;28;20059;-49
2021/10/24 03:14:02;;;;;;;1.75;1.58;;;;;;;;;;5112048;28;20038;-53
2021/10/24 03:16:28;;;;;;;1.73;1.40;;;;;;;;;;5111860;28;20468;-48
2021/10/24 03:18:53;;;;;;;2.35;1.70;;;;;;;;;;5112149;28;20538;-50
2021/10/24 03:21:18;;;;;;;2.22;1.60;;;;;;;;;;5112161;28;20027;-48
2021/10/24 03:23:44;;;;;;;1.83;1.52;;;;;;;;;;5112012;28;20031;-48
2021/10/24 03:26:09;;;;;;;2.00;1.60;;;;;;;;;;5126134;27;20031;-52
2021/10/24 03:28:36;;;;;;;2.13;1.65;;;;;;;;;;5112032;28;20035;-52
2021/10/24 03:31:01;;;;;;;2.47;1.58;;;;;;;;;;5112019;28;20019;-49
2021/10/24 03:33:27;;;;;;;2.20;1.60;;;;;;;;;;5111573;28;20502;-48
2021/10/24 03:35:52;;;;;;;2.00;1.80;;;;;;;;;;5111639;28;20396;-48
2021/10/24 03:38:18;;;;;;;1.60;1.40;;;;;;;;;;5110604;28;20473;-52
2021/10/24 03:40:43;;;;;;;2.60;1.65;;;;;;;;;;5111823;28;20020;-48
2021/10/24 03:43:08;;;;;;;2.30;1.40;;;;;;;;;;5111958;28;20499;-48
2021/10/24 03:45:34;;;;;;;1.40;1.27;;;;;;;;;;5111246;28;20055;-52
2021/10/24 03:47:59;;;;;;;4.25;1.70;;;;;;;;;;5111812;28;20028;-51
2021/10/24 03:50:24;;;;;;;3.13;1.35;;;;;;;;;;5111762;28;20027;-52
2021/10/24 03:52:50;;;;;;;2.22;1.48;;;;;;;;;;5111558;28;20031;-48
2021/10/24 03:55:15;;;;;;;3.37;1.30;;;;;;;;;;5127514;27;20023;-49
2021/10/24 03:57:41;;;;;;;1.83;1.55;;;;;;;;;;5111288;28;20023;-52
2021/10/24 04:00:10;;;;;;;2.35;1.50;;;;;;;;;;5111344;28;20036;-49
2021/10/24 04:02:54;;;;;;;2.17;1.35;;;;;;;;;;5111543;28;20020;-48
2021/10/24 04:05:20;;;;;;;2.83;1.25;;;;;;;;;;5111596;28;20023;-50
2021/10/24 04:07:48;;;;;;;2.58;1.60;;;;;;;;;;5116373;27;20024;-50
2021/10/24 04:10:13;;;;;;;1.75;1.45;;;;;;;;;;5111508;28;20031;-50
2021/10/24 04:12:39;;;;;;;1.77;1.30;;;;;;;;;;5114616;28;20502;-48
2021/10/24 04:15:04;;;;;;;1.67;1.30;;;;;;;;;;5115709;28;20475;-51
2021/10/24 04:17:30;;;;;;;2.28;1.67;;;;;;;;;;5114968;28;20027;-48
2021/10/24 04:19:55;;;;;;;2.55;1.83;;;;;;;;;;5115122;28;20034;-50
2021/10/24 04:22:20;;;;;;;2.95;1.50;;;;;;;;;;5115797;28;20553;-50
2021/10/24 04:24:46;;;;;;;2.58;1.60;;;;;;;;;;5115438;28;20480;-52
2021/10/24 04:27:11;;;;;;;2.50;1.90;;;;;;;;;;5115517;28;20073;-48
2021/10/24 04:29:36;;;;;;;1.80;1.55;;;;;;;;;;5114697;28;20100;-51
2021/10/24 04:32:02;;;;;;;2.05;1.40;;;;;;;;;;5115006;28;20031;-51
2021/10/24 04:34:27;;;;;;;1.85;1.52;;;;;;;;;;5115451;28;20488;-51
2021/10/24 04:36:52;;;;;;;1.55;1.40;;;;;;;;;;5131081;27;20111;-52
2021/10/24 04:39:18;;;;;;;2.00;1.40;;;;;;;;;;5114904;28;20036;-50
2021/10/24 04:41:43;;;;;;;1.70;1.47;;;;;;;;;;5114898;27;20384;-47
2021/10/24 04:44:08;;;;;;;2.15;1.70;;;;;;;;;;5113850;28;20057;-49
2021/10/24 04:46:34;;;;;;;1.63;1.40;;;;;;;;;;5112938;28;20040;-49
2021/10/24 04:49:00;;;;;;;2.15;1.70;;;;;;;;;;5114837;28;20088;-52
2021/10/24 04:51:25;;;;;;;2.47;1.33;;;;;;;;;;5129617;27;20033;-48
2021/10/24 04:53:51;;;;;;;2.70;1.77;;;;;;;;;;5114930;28;20031;-50
2021/10/24 04:56:16;;;;;;;2.25;1.27;;;;;;;;;;5115027;28;20077;-48
2021/10/24 04:58:41;;;;;;;2.30;1.60;;;;;;;;;;5114883;28;20701;-48
2021/10/24 05:01:08;;;;;;;1.50;1.40;;;;;;;;;;5114589;28;20035;-48
2021/10/24 05:03:33;;;;;;;2.13;1.50;;;;;;;;;;5114612;28;20069;-48
2021/10/24 05:05:59;;;;;;;3.10;1.60;;;;;;;;;;5114373;28;20047;-48
2021/10/24 05:08:24;;;;;;;2.00;1.45;;;;;;;;;;5114802;28;20034;-48
2021/10/24 05:10:49;;;;;;;2.00;1.33;;;;;;;;;;5114080;28;20018;-48
2021/10/24 05:13:16;;;;;;;1.95;1.10;;;;;;;;;;5114413;28;20096;-48
2021/10/24 05:15:41;;;;;;;1.17;1.08;;;;;;;;;;5114104;28;20464;-48
2021/10/24 05:18:06;;;;;;;1.48;1.25;;;;;;;;;;5113565;28;20035;-48
2021/10/24 05:20:32;;;;;;;2.03;1.50;;;;;;;;;;5125923;27;20016;-48
2021/10/24 05:22:57;;;;;;;2.23;1.40;;;;;;;;;;5092674;28;20047;-48
2021/10/24 05:25:22;;;;;;;2.83;1.67;;;;;;;;;;5100751;28;20020;-48
2021/10/24 05:27:53;;;;;;;1.80;1.50;;;;;;;;;;5114202;28;20028;-48
2021/10/24 05:30:18;;;;;;;1.35;1.10;;;;;;;;;;5114161;28;20473;-48
2021/10/24 05:32:43;;;;;;;1.90;1.42;;;;;;;;;;5113963;27;20168;-52
2021/10/24 05:35:09;;;;;;;2.17;1.30;;;;;;;;;;5114025;28;20476;-50
2021/10/24 05:37:34;;;;;;;2.03;1.33;;;;;;;;;;5114082;28;20080;-49
2021/10/24 05:39:59;;;;;;;1.73;1.30;;;;;;;;;;5114150;28;20034;-51
2021/10/24 05:42:25;;;;;;;2.60;1.37;;;;;;;;;;5113884;28;20024;-51
2021/10/24 05:44:50;;;;;;;1.88;1.35;;;;;;;;;;5113648;28;20028;-51
2021/10/24 05:47:15;;;;;;;2.77;1.37;;;;;;;;;;5129606;27;20044;-48
2021/10/24 05:49:41;;;;;;;1.73;1.30;;;;;;;;;;5113666;28;20028;-47
2021/10/24 05:52:06;;;;;;;2.40;1.27;;;;;;;;;;5113482;28;20031;-49
2021/10/24 05:54:32;;;;;;;1.40;1.10;;;;;;;;;;5113543;28;20038;-49
2021/10/24 05:56:57;;;;;;;3.47;1.63;;;;;;;;;;5113498;28;20019;-49
2021/10/24 05:59:22;;;;;;;1.77;1.10;;;;;;;;;;5124322;27;20027;-49
2021/10/24 06:01:48;;;;;;;2.00;1.13;;;;;;;;;;5093219;28;20043;-52
2021/10/24 06:04:13;;;;;;;1.30;1.20;;;;;;;;;;5093361;28;20081;-51
2021/10/24 06:06:38;;;;;;;1.50;1.35;;;;;;;;;;5091886;28;20024;-51
2021/10/24 06:09:04;;;;;;;1.00;0.90;;;;;;;;;;5099476;28;20047;-51
2021/10/24 06:11:35;;;;;;;2.30;1.23;;;;;;;;;;5108896;28;20028;-48
2021/10/24 06:14:01;;;;;;;1.88;1.45;;;;;;;;;;5093125;28;20020;-48
2021/10/24 06:16:27;;;;;;;1.77;1.50;;;;;;;;;;5110284;28;20416;-50
2021/10/24 06:18:52;;;;;;;1.90;1.20;;;;;;;;;;5113413;28;20024;-47
2021/10/24 06:21:17;;;;;;;1.27;1.10;;;;;;;;;;5113329;28;20376;-49
2021/10/24 06:23:43;;;;;;;1.30;0.95;;;;;;;;;;5113340;28;20396;-49
2021/10/24 06:26:08;;;;;;;1.20;1.00;;;;;;;;;;5113203;28;20042;-50
2021/10/24 06:28:34;;;;;;;1.33;1.23;;;;;;;;;;5113112;27;20464;-48
2021/10/24 06:31:00;;;;;;;3.27;1.30;;;;;;;;;;5112249;28;20399;-51
2021/10/24 06:33:25;;;;;;;1.33;1.13;;;;;;;;;;5112769;28;20019;-49
2021/10/24 06:35:50;;;;;;;1.52;1.33;;;;;;;;;;5112994;28;20024;-49
2021/10/24 06:38:17;;;;;;;1.05;0.82;;;;;;;;;;5112823;28;20020;-47
2021/10/24 06:40:43;;;;;;;1.95;1.30;;;;;;;;;;5112679;28;20102;-52
2021/10/24 06:43:08;;;;;;;1.38;1.00;;;;;;;;;;5111608;28;20110;-47
2021/10/24 06:45:33;;;;;;;2.80;1.30;;;;;;;;;;5112565;28;20519;-52
2021/10/24 06:47:59;;;;;;;1.10;1.03;;;;;;;;;;5112820;27;20027;-51
2021/10/24 06:50:24;;;;;;;1.13;1.02;;;;;;;;;;5112587;27;20030;-52
2021/10/24 06:52:50;;;;;;;1.85;1.10;;;;;;;;;;5112354;28;20039;-48
2021/10/24 06:55:16;;;;;;;2.20;1.40;;;;;;;;;;5112690;28;20024;-51
2021/10/24 06:57:52;;;;;;;2.05;1.08;;;;;;;;;;5112422;27;20102;-48
2021/10/24 07:00:21;;;;;;;1.92;1.17;;;;;;;;;;5111366;28;20031;-51
2021/10/24 07:02:48;;;;;;;1.50;1.20;;;;;;;;;;5111816;28;20076;-50
2021/10/24 07:05:13;;;;;;;1.25;1.10;;;;;;;;;;5112599;28;20028;-52
2021/10/24 07:07:39;;;;;;;1.00;0.90;;;;;;;;;;5111875;28;20069;-50
2021/10/24 07:10:05;;;;;;;1.40;1.30;;;;;;;;;;5112035;27;20043;-49
2021/10/24 07:12:31;;;;;;;2.53;1.30;;;;;;;;;;5111523;28;20511;-52
2021/10/24 07:14:56;;;;;;;1.77;1.35;;;;;;;;;;5108180;28;20032;-49
2021/10/24 07:17:21;;;;;;;1.20;1.10;;;;;;;;;;5112219;28;20023;-49
2021/10/24 07:19:47;;;;;;;2.75;1.35;;;;;;;;;;5112137;28;20028;-48
2021/10/24 07:22:12;;;;;;;1.63;1.05;;;;;;;;;;5111881;28;20023;-52
2021/10/24 07:24:37;;;;;;;2.92;1.58;;;;;;;;;;5112255;28;20032;-49
2021/10/24 07:27:03;;;;;;;1.52;1.10;;;;;;;;;;5112098;28;20472;-49
2021/10/24 07:29:28;;;;;;;3.80;1.52;;;;;;;;;;5112455;28;20511;-51
2021/10/24 07:31:53;;;;;;;2.38;1.52;;;;;;;;;;5111952;28;20051;-49
2021/10/24 07:34:20;;;;;;;1.90;1.35;;;;;;;;;;5111769;28;20058;-49
2021/10/24 07:36:46;;;;;;;1.70;1.48;;;;;;;;;;5111755;28;20232;-48
2021/10/24 07:39:11;;;;;;;2.30;1.65;;;;;;;;;;5111856;28;20524;-51
2021/10/24 07:41:36;;;;;;;2.78;2.10;;;;;;;;;;5112078;28;20028;-50
2021/10/24 07:44:02;;;;;;;1.77;1.63;;;;;;;;;;5111551;28;20027;-52
2021/10/24 07:46:27;;;;;;;2.53;1.65;;;;;;;;;;5111427;28;20059;-52
2021/10/24 07:48:52;;;;;;;2.10;1.40;;;;;;;;;;5111999;28;20031;-49
2021/10/24 07:51:18;;;;;;;2.58;1.50;;;;;;;;;;5111556;28;20027;-49
2021/10/24 07:53:43;;;;;;;1.25;1.10;;;;;;;;;;5111492;28;20083;-49
2021/10/24 07:56:08;;;;;;;2.10;1.50;;;;;;;;;;5111862;28;20589;-48
2021/10/24 07:58:36;;;;;;;1.50;1.35;;;;;;;;;;5110825;28;20337;-48
2021/10/24 08:01:01;;;;;;;1.83;1.45;;;;;;;;;;5106671;28;20027;-47
2021/10/24 08:03:26;;;;;;;2.88;1.40;;;;;;;;;;5107828;28;20016;-49
2021/10/24 08:05:52;;;;;;;2.10;1.50;;;;;;;;;;5110733;28;20031;-51
2021/10/24 08:08:17;;;;;;;1.30;1.20;;;;;;;;;;5111031;28;20035;-49
2021/10/24 08:10:42;;;;;;;1.98;1.13;;;;;;;;;;5110125;28;20028;-51
2021/10/24 08:13:08;;;;;;;1.85;1.33;;;;;;;;;;5111516;28;20035;-50
2021/10/24 08:15:33;;;;;;;1.88;1.10;;;;;;;;;;5111627;28;20031;-48
2021/10/24 08:17:58;;;;;;;2.80;1.30;;;;;;;;;;5110985;28;20437;-51
2021/10/24 08:20:24;;;;;;;1.98;1.20;;;;;;;;;;5111538;28;20027;-49
2021/10/24 08:22:49;;;;;;;2.42;1.30;;;;;;;;;;5111484;28;20476;-51
2021/10/24 08:25:16;;;;;;;1.15;1.05;;;;;;;;;;5110326;28;20023;-47
2021/10/24 08:27:42;;;;;;;1.23;1.10;;;;;;;;;;5108669;28;20043;-48
2021/10/24 08:30:08;;;;;;;3.72;1.25;;;;;;;;;;5089248;28;20055;-49
2021/10/24 08:32:33;;;;;;;1.30;1.20;;;;;;;;;;5106176;28;20061;-51
2021/10/24 08:35:00;;;;;;;2.83;1.40;;;;;;;;;;5110786;28;20110;-52
2021/10/24 08:37:25;;;;;;;1.30;1.20;;;;;;;;;;5111232;28;20020;-48
2021/10/24 08:39:54;;;;;;;1.30;1.20;;;;;;;;;;5114857;28;20024;-50
2021/10/24 08:42:28;;;;;;;3.55;1.70;;;;;;;;;;5106055;28;20402;-49
2021/10/24 08:44:54;;;;;;;2.67;1.40;;;;;;;;;;5107656;28;20165;-48
2021/10/24 08:47:19;;;;;;;1.30;1.20;;;;;;;;;;5110860;28;20404;-47
2021/10/24 08:49:45;;;;;;;1.50;1.40;;;;;;;;;;5099027;28;20511;-48
2021/10/24 08:52:11;;;;;;;2.17;1.50;;;;;;;;;;5105941;28;20381;-47
2021/10/24 08:54:40;;;;;;;4.50;1.42;;;;;;;;;;5112150;28;20179;-49
2021/10/24 08:57:06;;;;;;;1.73;1.27;;;;;;;;;;5114847;28;20053;-48
2021/10/24 08:59:31;;;;;;;1.97;1.17;;;;;;;;;;5100691;28;20104;-48
2021/10/24 09:01:57;;;;;;;1.43;1.17;;;;;;;;;;5109809;27;20476;-48
2021/10/24 09:04:23;;;;;;;1.73;1.40;;;;;;;;;;5113947;28;20028;-48
2021/10/24 09:06:49;;;;;;;1.40;1.30;;;;;;;;;;5130097;27;20034;-49
2021/10/24 09:09:22;;;;;;;1.77;1.42;;;;;;;;;;5091660;28;20580;-48
2021/10/24 09:11:51;;;;;;;1.80;1.27;;;;;;;;;;5083426;28;20461;-48
2021/10/24 09:14:34;;;;;;;2.38;1.20;;;;;;;;;;5105877;28;20387;-48
2021/10/24 09:16:59;;;;;;;1.85;1.20;;;;;;;;;;5114054;28;20030;-50
2021/10/24 09:19:25;;;;;;;1.23;1.13;;;;;;;;;;5103571;28;20027;-53
2021/10/24 09:21:50;;;;;;;2.13;1.35;;;;;;;;;;5108415;28;20020;-48
2021/10/24 09:24:15;;;;;;;1.45;1.05;;;;;;;;;;5114320;28;20107;-51
2021/10/24 09:26:41;;;;;;;1.70;1.00;;;;;;;;;;5100616;28;20088;-51
2021/10/24 09:29:14;;;;;;;1.00;0.90;;;;;;;;;;5105311;28;20031;-48
2021/10/24 09:31:41;;;;;;;1.50;1.27;;;;;;;;;;5087413;28;20484;-49
2021/10/24 09:34:22;;;;;;;2.63;1.40;;;;;;;;;;5096663;28;20024;-52
2021/10/24 09:36:52;;;;;;;2.47;2.08;;;;;;;;;;5129781;27;20484;-48
2021/10/24 09:39:18;;;;;;;1.15;1.00;;;;;;;;;;5105708;28;20038;-48
2021/10/24 09:41:43;;;;;;;1.65;1.15;;;;;;;;;;5103793;28;20076;-52
2021/10/24 09:44:10;;;;;;;1.83;1.00;;;;;;;;;;5114410;28;20024;-52
2021/10/24 09:46:36;;;;;;;1.35;1.20;;;;;;;;;;5108754;28;20089;-48
2021/10/24 09:49:02;;;;;;;1.27;1.15;;;;;;;;;;5089451;28;20019;-48
2021/10/24 09:51:34;;;;;;;1.23;1.10;;;;;;;;;;5104568;28;20020;-49
2021/10/24 09:54:00;;;;;;;1.05;1.00;;;;;;;;;;5113845;28;20610;-49
2021/10/24 09:56:27;;;;;;;1.00;0.97;;;;;;;;;;5113180;28;20035;-48
2021/10/24 09:58:53;;;;;;;1.35;1.20;;;;;;;;;;5105401;28;20033;-51
2021/10/24 10:01:19;;;;;;;1.60;1.15;;;;;;;;;;5100232;27;20491;-52
2021/10/24 10:03:45;;;;;;;1.95;1.05;;;;;;;;;;5113364;28;20503;-53
2021/10/24 10:06:11;;;;;;;1.38;1.08;;;;;;;;;;5113523;28;20023;-49
2021/10/24 10:08:48;;;;;;;1.10;0.90;;;;;;;;;;5111308;28;20035;-48
2021/10/24 10:11:29;;;;;;;1.67;1.08;;;;;;;;;;5082387;28;20035;-50
2021/10/24 10:14:08;;;;;;;1.45;1.10;;;;;;;;;;5093068;28;20031;-49
2021/10/24 10:16:38;;;;;;;1.10;1.00;;;;;;;;;;5108599;28;20028;-52
2021/10/24 10:19:05;;;;;;;1.05;1.05;;;;;;;;;;5105611;28;20102;-50
2021/10/24 10:21:32;;;;;;;;;;;;;;;;;;5103128;28;20020;-52
2021/10/24 10:23:58;;;;;;;1.20;1.10;;;;;;;;;;5110428;28;19908;-51
2021/10/24 10:26:33;;;;;;;1.30;1.20;;;;;;;;;;5112564;28;20365;-51
2021/10/24 10:28:59;;;;;;;1.73;0.97;;;;;;;;;;5104295;28;20035;-49
2021/10/24 10:31:24;;;;;;;1.33;1.02;;;;;;;;;;5100296;28;20028;-50
2021/10/24 10:34:00;;;;;;;1.10;1.00;;;;;;;;;;5113281;28;20400;-48
2021/10/24 10:36:44;;;;;;;1.67;1.08;;;;;;;;;;5112061;28;20034;-48
2021/10/24 10:39:28;;;;;;;1.55;1.10;;;;;;;;;;5105475;28;20035;-48
2021/10/24 10:41:53;;;;;;;1.17;1.08;;;;;;;;;;5102210;28;20392;-48
2021/10/24 10:44:19;;;;;;;1.23;1.10;;;;;;;;;;5105217;28;20023;-50
2021/10/24 10:46:44;;;;;;;2.53;1.30;;;;;;;;;;5106143;28;20060;-48
2021/10/24 10:49:21;;;;;;;1.80;1.23;;;;;;;;;;5101259;28;20031;-53
2021/10/24 10:51:47;;;;;;;1.10;1.00;;;;;;;;;;5098896;28;20032;-50
2021/10/24 10:54:12;;;;;;;1.10;1.00;;;;;;;;;;5107418;28;20019;-50
2021/10/24 10:56:41;;;;;;;2.10;1.30;;;;;;;;;;5103603;28;20035;-50
2021/10/24 10:59:07;;;;;;;1.80;1.15;;;;;;;;;;5107841;27;20106;-47
2021/10/24 11:01:34;;;;;;;2.17;1.20;;;;;;;;;;5109207;27;20036;-51
2021/10/24 11:04:08;;;;;;;1.45;1.35;;;;;;;;;;5111172;28;20089;-52
2021/10/24 11:06:33;;;;;;;2.88;1.67;;;;;;;;;;5111884;28;20076;-51
2021/10/24 11:09:03;;;;;;;3.17;1.80;;;;;;;;;;5104729;28;20106;-48
2021/10/24 11:11:41;;;;;;;2.08;1.30;;;;;;;;;;5101866;28;20032;-51
2021/10/24 11:14:15;;;;;;;1.08;0.98;;;;;;;;;;5110787;28;20020;-48
2021/10/24 11:16:50;;;;;;;1.75;1.20;;;;;;;;;;5109846;28;20051;-48
2021/10/24 11:19:28;;;;;;;1.55;1.25;;;;;;;;;;5105140;28;20035;-50
2021/10/24 11:21:58;;;;;;;2.05;1.25;;;;;;;;;;5106768;28;20103;-49
2021/10/24 11:24:24;;;;;;;1.92;1.33;;;;;;;;;;5112183;28;20047;-47
2021/10/24 11:26:53;;;;;;;1.52;1.10;;;;;;;;;;5111820;28;20388;-49
2021/10/24 11:29:19;;;;;;;1.85;1.23;;;;;;;;;;5104940;28;20038;-48
2021/10/24 11:31:44;;;;;;;1.63;1.27;;;;;;;;;;5101902;28;20118;-49
2021/10/24 11:34:09;;;;;;;2.10;1.27;;;;;;;;;;5112003;28;20044;-50
2021/10/24 11:36:36;;;;;;;1.35;1.25;;;;;;;;;;5111358;28;20024;-51
2021/10/24 11:39:02;;;;;;;;;;;;;;;;;;5105591;28;20047;-48
2021/10/24 11:41:28;;;;;;;1.07;0.97;;;;;;;;;;5101553;28;19993;-49
2021/10/24 11:44:07;;;;;;;1.87;1.10;;;;;;;;;;5111183;28;20027;-49
2021/10/24 11:46:32;;;;;;;1.70;1.40;;;;;;;;;;5111145;28;20507;-48
2021/10/24 11:49:03;;;;;;;1.50;1.40;;;;;;;;;;5104417;28;20074;-48
2021/10/24 11:51:28;;;;;;;2.28;1.20;;;;;;;;;;5101152;28;20396;-51
2021/10/24 11:53:54;;;;;;;0.97;0.90;;;;;;;;;;5111579;28;20020;-47
2021/10/24 12:01:26;;;;;;;2.03;1.30;;;;;;;;;;5111173;28;20020;-51
2021/10/24 12:03:59;;;;;;;2.08;1.30;;;;;;;;;;5110251;28;20032;-50
2021/10/24 12:06:43;;;;;;;1.40;1.30;;;;;;;;;;5111066;28;20028;-50
2021/10/24 12:09:13;;;;;;;1.70;1.38;;;;;;;;;;5109579;28;20115;-49
2021/10/24 12:11:41;;;;;;;2.05;1.15;;;;;;;;;;5109223;28;20556;-50
2021/10/24 12:14:06;;;;;;;2.13;1.30;;;;;;;;;;5109302;28;20069;-51
2021/10/24 12:16:33;;;;;;;1.10;1.00;;;;;;;;;;5109579;28;20023;-48
2021/10/24 12:19:17;;;;;;;1.48;1.15;;;;;;;;;;5108326;28;20091;-51
2021/10/24 12:21:53;;;;;;;1.35;1.15;;;;;;;;;;5108967;28;20020;-47
2021/10/24 12:24:20;;;;;;;2.38;1.50;;;;;;;;;;5109373;28;20449;-48
2021/10/24 12:26:45;;;;;;;1.48;1.10;;;;;;;;;;5115549;28;20023;-48
2021/10/24 12:29:17;;;;;;;2.63;1.40;;;;;;;;;;5113599;28;20480;-48
2021/10/24 12:31:44;;;;;;;1.42;1.20;;;;;;;;;;5115334;28;20103;-48
2021/10/24 12:34:13;;;;;;;2.97;1.30;;;;;;;;;;5115249;28;20506;-48
2021/10/24 12:36:39;;;;;;;1.10;1.00;;;;;;;;;;5115107;28;20035;-49
2021/10/24 12:39:19;;;;;;;1.87;1.40;;;;;;;;;;5113867;28;20020;-49
2021/10/24 12:41:46;;;;;;;1.73;1.35;;;;;;;;;;5115081;28;20086;-50
2021/10/24 12:44:23;;;;;;;1.42;1.10;;;;;;;;;;5115218;28;20023;-48
2021/10/24 12:46:49;;;;;;;2.38;1.33;;;;;;;;;;5114569;28;20236;-47
2021/10/24 12:49:29;;;;;;;2.30;1.23;;;;;;;;;;5130821;27;20024;-51
2021/10/24 12:52:10;;;;;;;1.40;1.20;;;;;;;;;;5116168;27;20397;-51
2021/10/24 12:54:36;;;;;;;1.90;1.10;;;;;;;;;;5093321;28;20433;-48
2021/10/24 12:57:02;;;;;;;1.40;1.20;;;;;;;;;;5100035;28;20103;-50
2021/10/24 12:59:27;;;;;;;1.97;1.40;;;;;;;;;;5114654;28;20019;-52
2021/10/24 13:01:53;;;;;;;1.53;1.40;;;;;;;;;;5114651;28;20400;-47
2021/10/24 13:04:18;;;;;;;1.20;1.10;;;;;;;;;;5114761;28;20027;-48
2021/10/24 13:06:44;;;;;;;2.37;2.03;;;;;;;;;;5114507;28;20032;-48
2021/10/24 13:09:09;;;;;;;3.03;1.90;;;;;;;;;;5114300;28;20051;-50
2021/10/24 13:11:35;;;;;;;1.93;1.70;;;;;;;;;;5114706;28;20047;-51
2021/10/24 13:14:00;;;;;;;4.50;2.43;;;;;;;;;;5114544;28;20024;-51
2021/10/24 13:16:26;;;;;;;3.53;2.63;;;;;;;;;;5114651;28;20024;-48
2021/10/24 13:18:52;;;;;;;5.60;2.00;;;;;;;;;;5114198;28;20035;-50
2021/10/24 13:24:01;;;;;;;3.33;1.60;;;;;;;;;;5113337;28;20030;-51
2021/10/24 13:26:27;;;;;;;4.03;1.63;;;;;;;;;;5114080;28;20032;-49
2021/10/24 13:28:52;;;;;;;2.20;1.80;;;;;;;;;;5114169;28;20030;-47
2021/10/24 13:31:18;;;;;;;2.70;1.50;;;;;;;;;;5113872;28;20032;-51
2021/10/24 13:33:43;;;;;;;2.70;1.73;;;;;;;;;;5112791;28;20450;-48
2021/10/24 13:36:09;;;;;;;1.95;1.70;;;;;;;;;;5114024;28;20027;-49
2021/10/24 13:38:34;;;;;;;2.03;1.50;;;;;;;;;;5113247;28;20549;-53
2021/10/24 13:41:00;;;;;;;2.20;1.70;;;;;;;;;;5113695;28;20024;-47
2021/10/24 13:43:25;;;;;;;2.77;1.67;;;;;;;;;;5113809;28;20036;-47
2021/10/24 13:45:51;;;;;;;2.97;1.90;;;;;;;;;;5113825;28;20082;-48
2021/10/24 13:48:16;;;;;;;3.37;1.80;;;;;;;;;;5113988;28;20032;-51
2021/10/24 13:50:42;;;;;;;2.37;1.80;;;;;;;;;;5112772;28;20424;-49
2021/10/24 13:53:07;;;;;;;2.27;1.80;;;;;;;;;;5121750;27;20028;-48
2021/10/24 13:55:33;;;;;;;2.40;1.70;;;;;;;;;;5101991;28;20129;-48
2021/10/24 13:57:58;;;;;;;2.17;1.57;;;;;;;;;;5112367;28;20476;-49
2021/10/24 14:00:24;;;;;;;1.63;1.50;;;;;;;;;;5111536;28;20027;-51
2021/10/24 14:02:51;;;;;;;2.77;1.67;;;;;;;;;;5113962;27;20054;-47
2021/10/24 14:05:17;;;;;;;3.63;1.80;;;;;;;;;;5101397;28;20046;-51
2021/10/24 14:07:43;;;;;;;3.00;1.93;;;;;;;;;;5090910;28;20020;-49
2021/10/24 14:10:08;;;;;;;2.33;1.67;;;;;;;;;;5090641;28;20024;-48
2021/10/24 14:12:33;;;;;;;2.00;1.57;;;;;;;;;;5091286;28;20066;-47
2021/10/24 14:14:59;;;;;;;2.93;1.77;;;;;;;;;;5106663;28;20020;-49
2021/10/24 14:17:24;;;;;;;2.70;1.90;;;;;;;;;;5105433;28;20492;-50
2021/10/24 14:19:50;;;;;;;3.57;2.07;;;;;;;;;;5108717;28;20124;-50
2021/10/24 14:22:15;;;;;;;3.13;2.10;;;;;;;;;;5103224;28;20028;-49
2021/10/24 14:24:41;;;;;;;3.37;2.00;;;;;;;;;;5089576;28;20028;-51
2021/10/24 14:27:06;;;;;;;2.90;1.77;;;;;;;;;;5102768;28;20061;-50
2021/10/24 14:29:38;;;;;;;2.83;1.60;;;;;;;;;;5109855;27;20580;-49
2021/10/24 14:32:04;;;;;;;4.20;2.20;;;;;;;;;;5111223;28;20024;-49
2021/10/24 14:34:29;;;;;;;3.10;2.10;;;;;;;;;;5111115;28;20110;-48
2021/10/24 14:36:55;;;;;;;4.10;2.00;;;;;;;;;;5111418;28;20102;-52
2021/10/24 14:39:20;;;;;;;2.47;1.87;;;;;;;;;;5111334;27;20031;-48
2021/10/24 14:41:45;;;;;;;3.50;2.03;;;;;;;;;;5110140;28;20057;-51
2021/10/24 14:44:11;;;;;;;3.00;2.00;;;;;;;;;;5102679;28;20026;-49
2021/10/24 14:46:36;;;;;;;3.70;1.92;;;;;;;;;;5105851;27;20108;-48
2021/10/24 14:49:02;;;;;;;2.93;2.03;;;;;;;;;;5102388;28;20024;-49